createdAt,value
2022-08-12T00:02:36.872Z,4.13
2022-08-12T00:05:20.245Z,3.33
2022-08-12T00:08:02.929Z,6.30
2022-08-12T00:10:45.701Z,3.95
2022-08-12T00:13:28.760Z,5.28
2022-08-12T00:16:14.174Z,4.72
2022-08-12T00:18:58.448Z,3.60
2022-08-12T00:21:44.072Z,4.50
2022-08-12T00:24:29.460Z,4.10
2022-08-12T00:27:13.071Z,4.20
2022-08-12T00:29:57.470Z,3.75
2022-08-12T00:32:49.017Z,3.70
2022-08-12T00:35:37.608Z,4.75
2022-08-12T00:38:23.095Z,3.95
2022-08-12T00:41:06.397Z,4.32
2022-08-12T00:43:38.742Z,3.80
2022-08-12T00:46:21.331Z,4.78
2022-08-12T00:48:55.009Z,3.55
2022-08-12T00:51:47.490Z,3.97
2022-08-12T00:54:18.188Z,4.25
2022-08-12T00:56:52.315Z,3.97
2022-08-12T00:59:24.948Z,5.55
2022-08-12T01:02:10.691Z,3.53
2022-08-12T01:04:59.087Z,3.80
2022-08-12T01:07:42.770Z,4.30
2022-08-12T01:10:29.564Z,4.32
2022-08-12T01:13:18.699Z,4.55
2022-08-12T01:15:52.815Z,5.25
2022-08-12T01:18:23.972Z,4.45
2022-08-12T01:21:09.653Z,3.80
2022-08-12T01:23:54.014Z,4.07
2022-08-12T01:26:28.232Z,4.50
2022-08-12T01:29:00.393Z,4.10
2022-08-12T01:31:32.921Z,4.20
2022-08-12T01:34:36.680Z,4.38
2022-08-12T01:37:00.981Z,4.95
2022-08-12T01:39:33.546Z,4.45
2022-08-12T01:42:11.487Z,4.28
2022-08-12T01:44:42.421Z,5.25
2022-08-12T01:47:24.367Z,4.10
2022-08-12T01:50:11.859Z,4.28
2022-08-12T01:52:53.209Z,4.25
2022-08-12T01:55:26.269Z,4.38
2022-08-12T01:58:11.804Z,4.53
2022-08-12T02:00:55.594Z,4.82
2022-08-12T02:03:50.943Z,3.92
2022-08-12T02:06:41.532Z,4.25
2022-08-12T02:09:28.450Z,5.03
2022-08-12T02:12:12.390Z,4.10
2022-08-12T02:14:59.136Z,4.90
2022-08-12T02:17:59.872Z,4.50
2022-08-12T02:20:51.490Z,4.65
2022-08-12T02:23:28.290Z,4.93
2022-08-12T02:26:06.790Z,3.85
2022-08-12T02:28:37.739Z,3.97
2022-08-12T02:31:12.229Z,3.80
2022-08-12T02:33:44.193Z,5.50
2022-08-12T02:36:16.567Z,3.80
2022-08-12T02:38:47.858Z,3.60
2022-08-12T02:41:19.789Z,5.18
2022-08-12T02:43:54.533Z,4.75
2022-08-12T02:46:32.527Z,4.82
2022-08-12T02:49:08.010Z,5.32
2022-08-12T02:51:45.171Z,4.35
2022-08-12T02:54:15.903Z,4.45
2022-08-12T02:56:50.651Z,5.72
2022-08-12T02:59:24.501Z,4.72
2022-08-12T03:01:58.829Z,4.43
2022-08-12T03:04:40.218Z,3.72
2022-08-12T03:07:19.160Z,4.75
2022-08-12T03:10:04.774Z,4.47
2022-08-12T03:12:40.737Z,5.18
2022-08-12T03:15:23.001Z,4.63
2022-08-12T03:18:25.380Z,3.95
2022-08-12T03:20:51.578Z,4.50
2022-08-12T03:23:29.645Z,4.15
2022-08-12T03:26:03.546Z,4.60
2022-08-12T03:28:48.432Z,4.17
2022-08-12T03:31:19.336Z,10.30
2022-08-12T03:34:01.520Z,5.30
2022-08-12T03:36:37.790Z,5.20
2022-08-12T03:39:35.820Z,4.97
2022-08-12T03:42:17.582Z,4.03
2022-08-12T03:45:11.803Z,6.20
2022-08-12T03:48:02.956Z,5.80
2022-08-12T03:50:48.443Z,4.25
2022-08-12T03:53:37.584Z,8.48
2022-08-12T03:56:20.378Z,5.00
2022-08-12T03:59:03.301Z,4.90
2022-08-12T04:01:40.909Z,9.57
2022-08-12T04:04:12.446Z,4.72
2022-08-12T04:06:48.347Z,6.15
2022-08-12T04:09:23.139Z,4.43
2022-08-12T04:12:06.200Z,6.35
2022-08-12T04:14:37.889Z,4.63
2022-08-12T04:17:08.522Z,4.25
2022-08-12T04:19:40.163Z,6.45
2022-08-12T04:22:13.184Z,4.53
2022-08-12T04:24:49.441Z,4.85
2022-08-12T04:27:20.973Z,4.88
2022-08-12T04:30:29.076Z,4.82
2022-08-12T04:32:44.475Z,4.93
2022-08-12T04:35:15.476Z,5.45
2022-08-12T04:37:58.001Z,7.72
2022-08-12T04:40:33.089Z,5.38
2022-08-12T04:43:03.853Z,4.90
2022-08-12T04:45:37.565Z,3.90
2022-08-12T04:48:08.582Z,4.90
2022-08-12T04:50:38.898Z,4.20
2022-08-12T04:53:13.477Z,7.55
2022-08-12T04:55:46.002Z,5.38
2022-08-12T04:58:16.200Z,5.05
2022-08-12T05:00:59.997Z,4.07
2022-08-12T05:03:46.503Z,5.03
2022-08-12T05:06:26.355Z,4.65
2022-08-12T05:09:00.726Z,4.55
2022-08-12T05:14:03.187Z,4.00
2022-08-12T05:16:36.050Z,5.03
2022-08-12T05:19:12.916Z,4.75
2022-08-12T05:21:49.328Z,5.20
2022-08-12T05:24:22.179Z,4.43
2022-08-12T05:26:52.604Z,5.25
2022-08-12T05:30:06.682Z,4.93
2022-08-12T05:32:17.432Z,4.00
2022-08-12T05:34:47.493Z,6.82
2022-08-12T05:37:17.693Z,8.82
2022-08-12T05:39:50.538Z,6.22
2022-08-12T05:42:32.681Z,9.73
2022-08-12T05:45:05.060Z,7.40
2022-08-12T05:47:42.545Z,4.60
2022-08-12T05:50:25.832Z,5.03
2022-08-12T05:52:56.965Z,6.83
2022-08-12T05:55:31.438Z,4.82
2022-08-12T05:58:03.174Z,4.90
2022-08-12T06:00:35.111Z,4.07
2022-08-12T06:03:10.715Z,4.32
2022-08-12T06:05:51.945Z,4.88
2022-08-12T06:08:28.126Z,7.15
2022-08-12T06:11:02.640Z,12.48
2022-08-12T06:13:53.899Z,11.02
2022-08-12T06:16:26.309Z,11.05
2022-08-12T06:18:57.290Z,11.13
2022-08-12T06:21:27.575Z,10.52
2022-08-12T06:23:57.788Z,12.30
2022-08-12T06:26:30.526Z,12.07
2022-08-12T06:29:00.828Z,10.97
2022-08-12T06:31:31.179Z,11.60
2022-08-12T06:35:25.991Z,8.50
2022-08-12T06:36:53.744Z,7.50
2022-08-12T06:39:24.410Z,4.88
2022-08-12T06:42:31.919Z,5.10
2022-08-12T06:45:00.568Z,5.88
2022-08-12T06:47:32.747Z,5.72
2022-08-12T06:50:04.030Z,5.00
2022-08-12T06:52:34.366Z,6.15
2022-08-12T06:55:04.719Z,5.35
2022-08-12T06:58:05.464Z,4.63
2022-08-12T07:00:38.904Z,4.40
2022-08-12T07:03:22.695Z,4.97
2022-08-12T07:05:53.923Z,5.38
2022-08-12T07:08:25.693Z,4.93
2022-08-12T07:11:00.312Z,4.20
2022-08-12T07:14:11.602Z,4.43
2022-08-12T07:16:49.198Z,4.10
2022-08-12T07:19:19.858Z,5.38
2022-08-12T07:22:02.007Z,4.47
2022-08-12T07:24:33.324Z,4.00
2022-08-12T07:27:05.881Z,4.80
2022-08-12T07:29:58.310Z,4.07
2022-08-12T07:32:31.427Z,4.00
2022-08-12T07:35:04.223Z,5.57
2022-08-12T07:37:44.351Z,5.50
2022-08-12T07:40:16.129Z,4.05
2022-08-12T07:42:46.513Z,4.63
2022-08-12T07:45:20.417Z,6.00
2022-08-12T07:47:52.140Z,5.97
2022-08-12T07:50:24.111Z,4.00
2022-08-12T07:52:55.147Z,3.80
2022-08-12T07:55:25.388Z,3.85
2022-08-12T07:57:59.526Z,5.25
2022-08-12T08:00:34.373Z,4.30
2022-08-12T08:03:04.649Z,5.97
2022-08-12T08:05:38.301Z,4.85
2022-08-12T08:08:21.972Z,5.18
2022-08-12T08:11:15.151Z,4.40
2022-08-12T08:13:43.964Z,4.90
2022-08-12T08:16:16.983Z,4.43
2022-08-12T08:18:47.227Z,4.35
2022-08-12T08:21:17.921Z,4.68
2022-08-12T08:24:05.057Z,5.97
2022-08-12T08:26:35.605Z,4.93
2022-08-12T08:29:05.801Z,4.90
2022-08-12T08:31:40.642Z,5.88
2022-08-12T08:34:47.389Z,7.13
2022-08-12T08:37:06.164Z,4.30
2022-08-12T08:39:39.323Z,5.93
2022-08-12T08:42:22.166Z,4.45
2022-08-12T08:44:57.761Z,6.15
2022-08-12T08:47:31.660Z,4.65
2022-08-12T08:52:39.496Z,4.55
2022-08-12T08:55:14.099Z,6.03
2022-08-12T08:57:47.813Z,4.00
2022-08-12T09:00:20.032Z,4.50
2022-08-12T09:02:58.905Z,4.78
2022-08-12T09:05:43.112Z,4.97
2022-08-12T09:08:26.724Z,5.75
2022-08-12T09:12:07.434Z,4.95
2022-08-12T09:14:18.819Z,3.97
2022-08-12T09:16:50.913Z,6.28
2022-08-12T09:19:27.715Z,4.43
2022-08-12T09:22:00.328Z,7.72
2022-08-12T09:24:30.944Z,4.43
2022-08-12T09:27:02.163Z,4.15
2022-08-12T09:30:10.897Z,3.92
2022-08-12T09:32:56.670Z,3.40
2022-08-12T09:35:21.816Z,6.07
2022-08-12T09:37:58.909Z,5.55
2022-08-12T09:40:57.248Z,6.40
2022-08-12T09:43:32.606Z,4.40
2022-08-12T09:46:06.631Z,4.90
2022-08-12T09:48:55.940Z,5.20
2022-08-12T09:51:37.499Z,4.75
2022-08-12T09:54:32.759Z,4.30
2022-08-12T10:00:16.972Z,6.30
2022-08-12T10:06:11.868Z,4.10
2022-08-12T10:08:31.202Z,4.00
2022-08-12T10:11:20.245Z,5.63
2022-08-12T10:13:52.841Z,4.15
2022-08-12T10:16:24.456Z,5.28
2022-08-12T10:18:59.936Z,5.85
2022-08-12T10:21:37.763Z,3.75
2022-08-12T10:24:12.248Z,3.92
2022-08-12T10:26:59.632Z,4.55
2022-08-12T10:30:40.628Z,4.95
2022-08-12T10:32:44.510Z,3.65
2022-08-12T10:35:18.729Z,4.00
2022-08-12T10:38:36.299Z,4.00
2022-08-12T10:41:04.025Z,4.43
2022-08-12T10:43:55.754Z,4.00
2022-08-12T10:46:30.966Z,4.70
2022-08-12T10:49:07.049Z,4.15
2022-08-12T10:52:03.593Z,4.50
2022-08-12T10:54:51.117Z,4.00
2022-08-12T10:58:15.148Z,4.50
2022-08-12T11:00:36.012Z,4.32
2022-08-12T11:04:36.017Z,4.13
2022-08-12T11:07:06.816Z,4.88
2022-08-12T11:08:51.181Z,7.40
2022-08-12T11:12:07.702Z,3.83
2022-08-12T11:14:49.055Z,4.53
2022-08-12T11:17:34.918Z,3.80
2022-08-12T11:20:02.058Z,4.57
2022-08-12T11:22:32.567Z,4.70
2022-08-12T11:25:02.807Z,4.43
2022-08-12T11:27:41.394Z,3.88
2022-08-12T11:30:31.346Z,3.95
2022-08-12T11:33:02.155Z,4.72
2022-08-12T11:35:43.995Z,3.42
2022-08-12T11:38:20.321Z,9.80
2022-08-12T11:40:50.640Z,3.83
2022-08-12T11:43:20.777Z,4.38
2022-08-12T11:45:56.727Z,4.78
2022-08-12T11:48:27.644Z,5.15
2022-08-12T11:51:17.827Z,3.83
2022-08-12T11:53:58.781Z,3.72
2022-08-12T11:56:38.530Z,4.28
2022-08-12T12:02:05.436Z,5.00
2022-08-12T12:04:35.822Z,4.13
2022-08-12T12:07:07.275Z,4.10
2022-08-12T12:09:53.505Z,3.72
2022-08-12T12:12:25.596Z,4.10
2022-08-12T12:14:58.636Z,4.88
2022-08-12T12:17:38.383Z,4.07
2022-08-12T12:20:12.570Z,4.60
2022-08-12T12:22:45.176Z,3.83
2022-08-12T12:25:16.026Z,3.80
2022-08-12T12:28:04.339Z,4.40
2022-08-12T12:30:37.331Z,3.75
2022-08-12T12:33:17.727Z,5.38
2022-08-12T12:36:19.882Z,6.82
2022-08-12T12:38:40.085Z,6.15
2022-08-12T12:41:16.671Z,4.55
2022-08-12T12:43:56.571Z,5.03
2022-08-12T12:46:34.743Z,4.60
2022-08-12T12:49:10.952Z,4.78
2022-08-12T12:51:48.792Z,3.60
2022-08-12T12:54:23.337Z,4.22
2022-08-12T12:56:59.301Z,3.88
2022-08-12T12:59:55.384Z,3.83
2022-08-12T13:02:31.580Z,3.40
2022-08-12T13:05:04.800Z,4.30
2022-08-12T13:07:54.851Z,4.93
2022-08-12T13:10:36.825Z,4.13
2022-08-12T13:14:07.789Z,3.40
2022-08-12T13:16:01.654Z,4.85
2022-08-12T13:18:36.951Z,3.97
2022-08-12T13:21:33.109Z,4.75
2022-08-12T13:24:10.461Z,3.85
2022-08-12T13:26:45.921Z,4.90
2022-08-12T13:29:17.098Z,4.38
2022-08-12T13:32:19.021Z,3.72
2022-08-12T13:34:39.218Z,4.40
2022-08-12T13:37:11.959Z,4.22
2022-08-12T13:39:42.455Z,4.13
2022-08-12T13:42:14.849Z,4.00
2022-08-12T13:44:46.164Z,3.65
2022-08-12T13:47:19.845Z,3.78
2022-08-12T13:49:55.465Z,3.40
2022-08-12T13:52:28.849Z,4.82
2022-08-12T13:54:59.010Z,3.95
2022-08-12T13:57:44.704Z,6.93
2022-08-12T14:00:18.874Z,3.78
2022-08-12T14:02:53.082Z,4.40
2022-08-12T14:05:38.313Z,4.20
2022-08-12T14:08:14.352Z,3.50
2022-08-12T14:10:55.818Z,3.42
2022-08-12T14:14:05.364Z,3.85
2022-08-12T14:16:38.213Z,5.95
2022-08-12T14:19:10.482Z,4.03
2022-08-12T14:21:59.456Z,4.45
2022-08-12T14:24:40.544Z,5.80
2022-08-12T14:27:12.730Z,5.47
2022-08-12T14:30:04.412Z,4.43
2022-08-12T14:32:37.409Z,3.42
2022-08-12T14:35:11.128Z,5.50
2022-08-12T14:37:55.936Z,3.80
2022-08-12T14:40:32.153Z,4.70
2022-08-12T14:43:06.207Z,3.22
2022-08-12T14:45:47.067Z,5.35
2022-08-12T14:48:23.944Z,3.22
2022-08-12T14:52:10.313Z,3.88
2022-08-12T14:55:24.649Z,4.75
2022-08-12T14:59:56.331Z,3.90
2022-08-12T15:02:29.778Z,3.67
2022-08-12T15:05:03.785Z,5.93
2022-08-12T15:07:49.021Z,4.78
2022-08-12T15:10:31.066Z,3.72
2022-08-12T15:13:08.532Z,6.78
2022-08-12T15:15:43.974Z,6.05
2022-08-12T15:18:21.348Z,3.75
2022-08-12T15:20:54.679Z,3.63
2022-08-12T15:23:29.131Z,5.20
2022-08-12T15:26:05.211Z,3.78
2022-08-12T15:28:41.519Z,4.23
2022-08-12T15:31:31.478Z,3.60
2022-08-12T15:34:14.570Z,3.70
2022-08-12T15:36:55.019Z,3.60
2022-08-12T15:39:27.537Z,3.85
2022-08-12T15:42:01.816Z,4.38
2022-08-12T15:44:38.109Z,3.80
2022-08-12T15:47:16.297Z,4.20
2022-08-12T15:50:00.275Z,6.40
2022-08-12T15:52:32.602Z,3.90
2022-08-12T15:55:06.618Z,3.78
2022-08-12T15:57:53.476Z,3.30
2022-08-12T16:00:32.837Z,3.55
2022-08-12T16:03:08.424Z,3.70
2022-08-12T16:06:10.987Z,3.55
2022-08-12T16:08:36.570Z,3.90
2022-08-12T16:11:15.198Z,3.92
2022-08-12T16:13:48.960Z,5.15
2022-08-12T16:16:24.838Z,4.35
2022-08-12T16:18:59.642Z,4.32
2022-08-12T16:21:50.414Z,3.65
2022-08-12T16:24:26.356Z,3.80
2022-08-12T16:29:49.336Z,3.42
2022-08-12T16:32:31.180Z,3.97
2022-08-12T16:35:05.958Z,4.32
2022-08-12T16:38:24.859Z,3.63
2022-08-12T16:40:31.623Z,4.47
2022-08-12T16:43:04.717Z,5.55
2022-08-12T16:46:05.381Z,4.30
2022-08-12T16:48:37.851Z,4.05
2022-08-12T16:51:12.441Z,4.22
2022-08-12T16:53:45.596Z,4.25
2022-08-12T16:58:48.757Z,3.92
2022-08-12T17:01:22.872Z,5.82
2022-08-12T17:04:09.019Z,4.30
2022-08-12T17:06:44.116Z,4.63
2022-08-12T17:09:17.701Z,5.32
2022-08-12T17:11:50.334Z,4.05
2022-08-12T17:14:23.330Z,4.03
2022-08-12T17:16:55.274Z,6.13
2022-08-12T17:20:29.201Z,3.70
2022-08-12T17:22:22.034Z,3.72
2022-08-12T17:24:55.965Z,4.00
2022-08-12T17:27:29.359Z,4.97
2022-08-12T17:30:04.988Z,6.38
2022-08-12T17:32:37.209Z,5.20
2022-08-12T17:35:29.725Z,6.28
2022-08-12T17:38:11.577Z,12.85
2022-08-12T17:40:43.180Z,8.45
2022-08-12T17:43:55.814Z,7.88
2022-08-12T17:46:12.778Z,6.97
2022-08-12T17:48:55.838Z,7.40
2022-08-12T17:51:34.603Z,4.82
2022-08-12T17:54:21.050Z,6.50
2022-08-12T17:56:55.604Z,5.65
2022-08-12T17:59:48.851Z,7.50
2022-08-12T18:02:25.529Z,5.50
2022-08-12T18:05:04.976Z,5.63
2022-08-12T18:07:41.346Z,4.72
2022-08-12T18:10:14.516Z,5.43
2022-08-12T18:12:51.057Z,6.35
2022-08-12T18:15:26.722Z,4.95
2022-08-12T18:18:17.095Z,5.85
2022-08-12T18:20:50.334Z,5.82
2022-08-12T18:23:24.215Z,5.07
2022-08-12T18:26:14.702Z,5.00
2022-08-12T18:28:48.826Z,5.97
2022-08-12T18:31:23.446Z,4.95
2022-08-12T18:33:54.594Z,4.68
2022-08-12T18:36:32.555Z,4.47
2022-08-12T18:39:05.325Z,5.15
2022-08-12T18:41:35.977Z,4.30
2022-08-12T18:44:13.542Z,5.40
2022-08-12T18:46:53.963Z,6.20
2022-08-12T18:49:34.601Z,9.27
2022-08-12T18:52:11.632Z,7.32
2022-08-12T18:54:52.252Z,5.28
2022-08-12T18:58:07.736Z,6.35
2022-08-12T19:00:21.286Z,6.57
2022-08-12T19:02:53.927Z,7.97
2022-08-12T19:05:54.328Z,6.53
2022-08-12T19:08:15.868Z,6.72
2022-08-12T19:10:50.665Z,7.10
2022-08-12T19:13:35.132Z,6.18
2022-08-12T19:16:12.787Z,7.43
2022-08-12T19:18:45.736Z,7.65
2022-08-12T19:21:20.211Z,7.70
2022-08-12T19:24:13.345Z,8.95
2022-08-12T19:26:46.869Z,5.88
2022-08-12T19:29:27.919Z,7.60
2022-08-12T19:32:12.446Z,10.52
2022-08-12T19:36:06.447Z,7.13
2022-08-12T19:38:04.542Z,8.57
2022-08-12T19:40:34.764Z,6.50
2022-08-12T19:43:19.470Z,6.82
2022-08-12T19:45:56.635Z,8.02
2022-08-12T19:48:32.581Z,9.35
2022-08-12T19:51:22.732Z,9.20
2022-08-12T19:53:57.474Z,7.78
2022-08-12T19:56:30.189Z,7.15
2022-08-12T19:59:18.725Z,8.57
2022-08-12T20:02:02.776Z,7.82
2022-08-12T20:04:37.664Z,7.40
2022-08-12T20:07:23.570Z,9.23
2022-08-12T20:09:56.619Z,7.43
2022-08-12T20:12:36.806Z,8.80
2022-08-12T20:15:17.576Z,8.45
2022-08-12T20:17:50.836Z,9.20
2022-08-12T20:20:27.650Z,8.18
2022-08-12T20:22:58.741Z,8.75
2022-08-12T20:25:52.694Z,7.88
2022-08-12T20:28:19.311Z,7.63
2022-08-12T20:30:59.715Z,8.55
2022-08-12T20:33:32.398Z,7.13
2022-08-12T20:36:43.014Z,7.65
2022-08-12T20:39:33.912Z,10.48
2022-08-12T20:42:10.041Z,8.52
2022-08-12T20:44:42.607Z,9.13
2022-08-12T20:47:19.598Z,7.53
2022-08-12T20:49:55.631Z,9.27
2022-08-12T20:52:45.293Z,7.85
2022-08-12T20:55:19.304Z,9.00
2022-08-12T20:58:01.849Z,7.93
2022-08-12T21:00:34.775Z,7.82
2022-08-12T21:03:19.982Z,9.15
2022-08-12T21:06:11.975Z,8.15
2022-08-12T21:08:44.330Z,8.13
2022-08-12T21:11:14.544Z,10.32
2022-08-12T21:13:46.429Z,8.55
2022-08-12T21:16:16.625Z,9.48
2022-08-12T21:19:18.477Z,8.20
2022-08-12T21:21:58.786Z,10.52
2022-08-12T21:24:32.321Z,9.82
2022-08-12T21:27:07.479Z,8.80
2022-08-12T21:29:39.950Z,8.90
2022-08-12T21:32:46.966Z,8.55
2022-08-12T21:35:17.436Z,7.80
2022-08-12T21:37:53.015Z,8.43
2022-08-12T21:40:32.432Z,8.32
2022-08-12T21:43:07.833Z,9.35
2022-08-12T21:45:45.888Z,9.45
2022-08-12T21:48:28.330Z,10.35
2022-08-12T21:51:01.311Z,8.20
2022-08-12T21:54:07.506Z,8.93
2022-08-12T21:56:34.219Z,10.93
2022-08-12T21:59:07.231Z,10.27
2022-08-12T22:01:48.340Z,9.77
2022-08-12T22:04:31.742Z,10.15
2022-08-12T22:07:06.919Z,9.70
2022-08-12T22:09:43.081Z,10.02
2022-08-12T22:12:26.530Z,11.00
2022-08-12T22:14:57.477Z,10.35
2022-08-12T22:17:50.390Z,10.38
2022-08-12T22:20:29.391Z,10.40
2022-08-12T22:23:05.409Z,12.73
2022-08-12T22:25:39.968Z,9.80
2022-08-12T22:28:24.446Z,10.52
2022-08-12T22:31:07.413Z,9.75
2022-08-12T22:33:54.469Z,10.20
2022-08-12T22:36:31.250Z,9.85
2022-08-12T22:39:08.917Z,9.73
2022-08-12T22:41:57.632Z,10.20
2022-08-12T22:44:52.918Z,10.20
2022-08-12T22:47:54.857Z,10.10
2022-08-12T22:50:29.587Z,11.40
2022-08-12T22:53:15.654Z,10.95
2022-08-12T22:55:58.939Z,9.35
2022-08-12T22:58:33.735Z,11.30
2022-08-12T23:01:04.509Z,11.27
2022-08-12T23:03:48.751Z,10.00
2022-08-12T23:06:23.969Z,10.30
2022-08-12T23:08:55.158Z,11.32
2022-08-12T23:11:36.316Z,10.07
2022-08-12T23:14:11.250Z,10.30
2022-08-12T23:16:42.130Z,11.52
2022-08-12T23:19:18.050Z,12.35
2022-08-12T23:22:05.064Z,9.40
2022-08-12T23:24:54.031Z,10.90
2022-08-12T23:27:50.322Z,10.40
2022-08-12T23:30:32.379Z,11.50
2022-08-12T23:33:13.226Z,12.00
2022-08-12T23:35:59.479Z,12.55
2022-08-12T23:38:34.815Z,10.50
2022-08-12T23:41:06.844Z,10.80
2022-08-12T23:43:42.790Z,10.38
2022-08-12T23:46:22.549Z,11.67
2022-08-12T23:48:58.590Z,11.20
2022-08-12T23:51:36.553Z,10.13
2022-08-12T23:54:10.186Z,11.88
2022-08-12T23:56:48.083Z,10.45
2022-08-12T23:59:22.808Z,11.05
